sensor_id;sensor_type;location;lat;lon;timestamp;pressure;altitude;pressure_sealevel;temperature;humidity
21359;BME280;13506;50.852;20.632;2023-07-31T00:01:07;97739.78;;;18.08;100.00
21359;BME280;13506;50.852;20.632;2023-07-31T00:03:37;97742.59;;;18.07;100.00
21359;BME280;13506;50.852;20.632;2023-07-31T00:06:05;97751.56;;;18.05;100.00
21359;BME280;13506;50.852;20.632;2023-07-31T00:08:33;97746.44;;;18.04;100.00
21359;BME280;13506;50.852;20.632;2023-07-31T00:11:02;97757.19;;;18.02;100.00
21359;BME280;13506;50.852;20.632;2023-07-31T00:13:30;97762.69;;;18.01;100.00
21359;BME280;13506;50.852;20.632;2023-07-31T00:15:58;97753.25;;;17.98;100.00
21359;BME280;13506;50.852;20.632;2023-07-31T00:18:27;97755.91;;;17.90;100.00
21359;BME280;13506;50.852;20.632;2023-07-31T00:20:56;97742.06;;;17.80;100.00
21359;BME280;13506;50.852;20.632;2023-07-31T00:23:24;97745.88;;;17.77;100.00
21359;BME280;13506;50.852;20.632;2023-07-31T00:25:52;97756.28;;;17.79;100.00
21359;BME280;13506;50.852;20.632;2023-07-31T00:28:20;97745.22;;;17.75;100.00
21359;BME280;13506;50.852;20.632;2023-07-31T00:30:48;97754.31;;;17.73;100.00
21359;BME280;13506;50.852;20.632;2023-07-31T00:33:16;97762.91;;;17.75;100.00
21359;BME280;13506;50.852;20.632;2023-07-31T00:35:44;97749.03;;;17.73;100.00
21359;BME280;13506;50.852;20.632;2023-07-31T00:38:14;97751.38;;;17.68;100.00
21359;BME280;13506;50.852;20.632;2023-07-31T00:40:42;97754.19;;;17.66;100.00
21359;BME280;13506;50.852;20.632;2023-07-31T00:43:10;97754.19;;;17.66;100.00
21359;BME280;13506;50.852;20.632;2023-07-31T00:45:38;97752.69;;;17.63;100.00
21359;BME280;13506;50.852;20.632;2023-07-31T00:48:07;97756.34;;;17.62;100.00
21359;BME280;13506;50.852;20.632;2023-07-31T00:50:36;97755.34;;;17.63;100.00
21359;BME280;13506;50.852;20.632;2023-07-31T00:53:04;97754.84;;;17.60;100.00
21359;BME280;13506;50.852;20.632;2023-07-31T00:55:35;97753.88;;;17.61;100.00
21359;BME280;13506;50.852;20.632;2023-07-31T00:58:03;97754.38;;;17.56;100.00
21359;BME280;13506;50.852;20.632;2023-07-31T01:00:31;97760.50;;;17.57;100.00
21359;BME280;13506;50.852;20.632;2023-07-31T01:02:59;97754.72;;;17.53;100.00
21359;BME280;13506;50.852;20.632;2023-07-31T01:05:36;97759.69;;;17.56;100.00
21359;BME280;13506;50.852;20.632;2023-07-31T01:08:11;97757.53;;;17.52;100.00
21359;BME280;13506;50.852;20.632;2023-07-31T01:10:49;97749.78;;;17.50;100.00
21359;BME280;13506;50.852;20.632;2023-07-31T01:13:20;97752.94;;;17.46;100.00
21359;BME280;13506;50.852;20.632;2023-07-31T01:15:49;97757.38;;;17.45;100.00
21359;BME280;13506;50.852;20.632;2023-07-31T01:18:17;97751.94;;;17.38;100.00
21359;BME280;13506;50.852;20.632;2023-07-31T01:20:57;97763.84;;;17.42;100.00
21359;BME280;13506;50.852;20.632;2023-07-31T01:23:55;97760.03;;;17.37;100.00
21359;BME280;13506;50.852;20.632;2023-07-31T01:26:34;97756.13;;;17.33;100.00
21359;BME280;13506;50.852;20.632;2023-07-31T01:29:08;97752.09;;;17.37;100.00
21359;BME280;13506;50.852;20.632;2023-07-31T01:31:39;97747.69;;;17.29;100.00
21359;BME280;13506;50.852;20.632;2023-07-31T01:34:09;97751.66;;;17.25;100.00
21359;BME280;13506;50.852;20.632;2023-07-31T01:36:37;97746.03;;;17.28;100.00
21359;BME280;13506;50.852;20.632;2023-07-31T01:39:06;97753.28;;;17.26;100.00
21359;BME280;13506;50.852;20.632;2023-07-31T01:41:35;97754.47;;;17.23;100.00
21359;BME280;13506;50.852;20.632;2023-07-31T01:44:04;97760.91;;;17.21;100.00
21359;BME280;13506;50.852;20.632;2023-07-31T01:46:32;97750.34;;;17.21;100.00
21359;BME280;13506;50.852;20.632;2023-07-31T01:49:00;97759.59;;;17.17;100.00
21359;BME280;13506;50.852;20.632;2023-07-31T01:51:28;97753.50;;;17.08;100.00
21359;BME280;13506;50.852;20.632;2023-07-31T01:54:00;97748.72;;;17.12;100.00
21359;BME280;13506;50.852;20.632;2023-07-31T01:56:28;97740.94;;;17.10;100.00
21359;BME280;13506;50.852;20.632;2023-07-31T01:58:58;97746.38;;;17.09;100.00
21359;BME280;13506;50.852;20.632;2023-07-31T02:01:26;97763.38;;;17.06;100.00
21359;BME280;13506;50.852;20.632;2023-07-31T02:03:54;97748.50;;;17.05;100.00
21359;BME280;13506;50.852;20.632;2023-07-31T02:06:23;97758.41;;;17.03;100.00
21359;BME280;13506;50.852;20.632;2023-07-31T02:08:51;97757.94;;;16.99;100.00
21359;BME280;13506;50.852;20.632;2023-07-31T02:11:19;97760.41;;;17.01;100.00
21359;BME280;13506;50.852;20.632;2023-07-31T02:13:50;97765.38;;;16.96;100.00
21359;BME280;13506;50.852;20.632;2023-07-31T02:16:19;97765.22;;;16.97;100.00
21359;BME280;13506;50.852;20.632;2023-07-31T02:18:48;97759.09;;;16.97;100.00
21359;BME280;13506;50.852;20.632;2023-07-31T02:21:15;97756.63;;;16.95;100.00
21359;BME280;13506;50.852;20.632;2023-07-31T02:23:44;97761.91;;;16.95;100.00
21359;BME280;13506;50.852;20.632;2023-07-31T02:26:12;97761.09;;;16.95;100.00
21359;BME280;13506;50.852;20.632;2023-07-31T02:28:40;97758.59;;;16.93;100.00
21359;BME280;13506;50.852;20.632;2023-07-31T02:31:09;97769.19;;;16.93;100.00
21359;BME280;13506;50.852;20.632;2023-07-31T02:33:39;97778.94;;;16.93;100.00
21359;BME280;13506;50.852;20.632;2023-07-31T02:36:07;97776.09;;;16.94;100.00
21359;BME280;13506;50.852;20.632;2023-07-31T02:38:35;97785.84;;;16.94;100.00
21359;BME280;13506;50.852;20.632;2023-07-31T02:41:03;97791.94;;;16.94;100.00
21359;BME280;13506;50.852;20.632;2023-07-31T02:43:31;97788.50;;;16.94;100.00
21359;BME280;13506;50.852;20.632;2023-07-31T02:46:00;97789.16;;;16.96;100.00
21359;BME280;13506;50.852;20.632;2023-07-31T02:48:28;97780.41;;;16.87;100.00
21359;BME280;13506;50.852;20.632;2023-07-31T02:50:57;97790.63;;;16.90;100.00
21359;BME280;13506;50.852;20.632;2023-07-31T02:53:26;97787.31;;;16.88;100.00
21359;BME280;13506;50.852;20.632;2023-07-31T02:55:54;97782.22;;;16.70;100.00
21359;BME280;13506;50.852;20.632;2023-07-31T02:58:22;97796.75;;;16.82;100.00
21359;BME280;13506;50.852;20.632;2023-07-31T03:00:50;97783.84;;;16.79;100.00
21359;BME280;13506;50.852;20.632;2023-07-31T03:03:18;97784.19;;;16.76;100.00
21359;BME280;13506;50.852;20.632;2023-07-31T03:05:46;97782.56;;;16.67;100.00
21359;BME280;13506;50.852;20.632;2023-07-31T03:08:15;97791.13;;;16.77;100.00
21359;BME280;13506;50.852;20.632;2023-07-31T03:10:43;97796.75;;;16.74;100.00
21359;BME280;13506;50.852;20.632;2023-07-31T03:13:12;97797.25;;;16.78;100.00
21359;BME280;13506;50.852;20.632;2023-07-31T03:15:42;97802.03;;;16.74;100.00
21359;BME280;13506;50.852;20.632;2023-07-31T03:18:11;97796.41;;;16.77;100.00
21359;BME280;13506;50.852;20.632;2023-07-31T03:20:42;97798.88;;;16.79;100.00
21359;BME280;13506;50.852;20.632;2023-07-31T03:23:11;97804.69;;;16.82;100.00
21359;BME280;13506;50.852;20.632;2023-07-31T03:25:54;97806.50;;;16.82;100.00
21359;BME280;13506;50.852;20.632;2023-07-31T03:28:22;97806.31;;;16.83;100.00
21359;BME280;13506;50.852;20.632;2023-07-31T03:30:51;97814.75;;;16.87;100.00
21359;BME280;13506;50.852;20.632;2023-07-31T03:33:20;97820.69;;;16.89;100.00
21359;BME280;13506;50.852;20.632;2023-07-31T03:35:48;97815.06;;;16.92;100.00
21359;BME280;13506;50.852;20.632;2023-07-31T03:38:16;97814.25;;;16.92;100.00
21359;BME280;13506;50.852;20.632;2023-07-31T03:40:46;97814.09;;;16.93;100.00
21359;BME280;13506;50.852;20.632;2023-07-31T03:43:14;97812.28;;;16.94;100.00
21359;BME280;13506;50.852;20.632;2023-07-31T03:45:43;97814.75;;;16.95;100.00
21359;BME280;13506;50.852;20.632;2023-07-31T03:48:13;97814.41;;;16.98;100.00
21359;BME280;13506;50.852;20.632;2023-07-31T03:50:41;97811.47;;;17.01;100.00
21359;BME280;13506;50.852;20.632;2023-07-31T03:53:09;97809.63;;;17.02;100.00
21359;BME280;13506;50.852;20.632;2023-07-31T03:55:38;97815.59;;;17.04;100.00
21359;BME280;13506;50.852;20.632;2023-07-31T03:58:08;97827.63;;;17.07;100.00
21359;BME280;13506;50.852;20.632;2023-07-31T04:00:36;97827.34;;;17.10;100.00
21359;BME280;13506;50.852;20.632;2023-07-31T04:03:04;97828.00;;;17.12;100.00
21359;BME280;13506;50.852;20.632;2023-07-31T04:05:32;97834.63;;;17.16;100.00
21359;BME280;13506;50.852;20.632;2023-07-31T04:08:01;97824.88;;;17.16;100.00
21359;BME280;13506;50.852;20.632;2023-07-31T04:10:29;97829.50;;;17.14;100.00
21359;BME280;13506;50.852;20.632;2023-07-31T04:13:00;97829.97;;;17.18;100.00
21359;BME280;13506;50.852;20.632;2023-07-31T04:15:29;97817.59;;;17.18;100.00
21359;BME280;13506;50.852;20.632;2023-07-31T04:17:57;97831.28;;;17.22;100.00
21359;BME280;13506;50.852;20.632;2023-07-31T04:20:25;97826.84;;;17.22;100.00
21359;BME280;13506;50.852;20.632;2023-07-31T04:22:54;97831.13;;;17.23;100.00
21359;BME280;13506;50.852;20.632;2023-07-31T04:25:21;97833.59;;;17.25;100.00
21359;BME280;13506;50.852;20.632;2023-07-31T04:27:50;97835.91;;;17.28;100.00
21359;BME280;13506;50.852;20.632;2023-07-31T04:30:17;97834.28;;;17.27;100.00
21359;BME280;13506;50.852;20.632;2023-07-31T04:32:47;97831.28;;;17.30;100.00
21359;BME280;13506;50.852;20.632;2023-07-31T04:35:15;97835.91;;;17.28;100.00
21359;BME280;13506;50.852;20.632;2023-07-31T04:37:44;97845.66;;;17.28;100.00
21359;BME280;13506;50.852;20.632;2023-07-31T04:40:15;97846.47;;;17.28;100.00
21359;BME280;13506;50.852;20.632;2023-07-31T04:42:43;97849.78;;;17.30;100.00
21359;BME280;13506;50.852;20.632;2023-07-31T04:45:12;97845.00;;;17.26;100.00
21359;BME280;13506;50.852;20.632;2023-07-31T04:47:41;97843.69;;;17.30;100.00
21359;BME280;13506;50.852;20.632;2023-07-31T04:50:10;97845.66;;;17.28;100.00
21359;BME280;13506;50.852;20.632;2023-07-31T04:52:38;97843.38;;;17.24;100.00
21359;BME280;13506;50.852;20.632;2023-07-31T04:55:07;97849.78;;;17.30;100.00
21359;BME280;13506;50.852;20.632;2023-07-31T04:57:35;97848.66;;;17.33;100.00
21359;BME280;13506;50.852;20.632;2023-07-31T05:00:03;97854.91;;;17.40;100.00
21359;BME280;13506;50.852;20.632;2023-07-31T05:02:32;97865.50;;;17.40;100.00
21359;BME280;13506;50.852;20.632;2023-07-31T05:04:59;97860.03;;;17.41;100.00
21359;BME280;13506;50.852;20.632;2023-07-31T05:07:29;97849.94;;;17.53;100.00
21359;BME280;13506;50.852;20.632;2023-07-31T05:09:57;97853.88;;;17.65;100.00
21359;BME280;13506;50.852;20.632;2023-07-31T05:12:25;97858.16;;;17.75;100.00
21359;BME280;13506;50.852;20.632;2023-07-31T05:14:53;97858.28;;;17.90;100.00
21359;BME280;13506;50.852;20.632;2023-07-31T05:17:21;97861.06;;;18.04;100.00
21359;BME280;13506;50.852;20.632;2023-07-31T05:19:49;97858.72;;;18.18;100.00
21359;BME280;13506;50.852;20.632;2023-07-31T05:22:17;97857.50;;;18.37;100.00
21359;BME280;13506;50.852;20.632;2023-07-31T05:24:47;97863.41;;;18.47;100.00
21359;BME280;13506;50.852;20.632;2023-07-31T05:27:15;97858.25;;;18.45;100.00
21359;BME280;13506;50.852;20.632;2023-07-31T05:29:45;97867.31;;;18.51;100.00
21359;BME280;13506;50.852;20.632;2023-07-31T05:32:13;97867.81;;;18.55;100.00
21359;BME280;13506;50.852;20.632;2023-07-31T05:34:41;97867.47;;;18.58;100.00
21359;BME280;13506;50.852;20.632;2023-07-31T05:37:10;97868.63;;;18.55;100.00
21359;BME280;13506;50.852;20.632;2023-07-31T05:39:38;97879.75;;;18.51;100.00
21359;BME280;13506;50.852;20.632;2023-07-31T05:42:08;97879.88;;;18.57;100.00
21359;BME280;13506;50.852;20.632;2023-07-31T05:44:36;97871.88;;;18.65;100.00
21359;BME280;13506;50.852;20.632;2023-07-31T05:47:05;97875.69;;;18.71;100.00
21359;BME280;13506;50.852;20.632;2023-07-31T05:49:33;97886.44;;;18.78;99.99
21359;BME280;13506;50.852;20.632;2023-07-31T05:52:02;97878.06;;;18.89;99.35
21359;BME280;13506;50.852;20.632;2023-07-31T05:54:31;97889.25;;;18.99;99.58
21359;BME280;13506;50.852;20.632;2023-07-31T05:56:59;97875.56;;;18.96;98.19
21359;BME280;13506;50.852;20.632;2023-07-31T05:59:28;97880.53;;;18.91;98.11
21359;BME280;13506;50.852;20.632;2023-07-31T06:01:59;97883.09;;;18.84;97.70
21359;BME280;13506;50.852;20.632;2023-07-31T06:04:28;97887.19;;;18.55;97.91
21359;BME280;13506;50.852;20.632;2023-07-31T06:06:58;97889.00;;;18.55;98.47
21359;BME280;13506;50.852;20.632;2023-07-31T06:09:27;97888.34;;;18.53;98.41
21359;BME280;13506;50.852;20.632;2023-07-31T06:11:55;97888.31;;;18.61;98.85
21359;BME280;13506;50.852;20.632;2023-07-31T06:14:22;97887.25;;;18.78;98.66
21359;BME280;13506;50.852;20.632;2023-07-31T06:16:52;97883.44;;;18.81;97.34
21359;BME280;13506;50.852;20.632;2023-07-31T06:19:20;97885.84;;;18.91;97.52
21359;BME280;13506;50.852;20.632;2023-07-31T06:21:48;97880.78;;;19.04;96.31
21359;BME280;13506;50.852;20.632;2023-07-31T06:24:16;97868.88;;;19.00;95.03
21359;BME280;13506;50.852;20.632;2023-07-31T06:26:47;97883.63;;;19.02;96.01
21359;BME280;13506;50.852;20.632;2023-07-31T06:29:15;97880.31;;;19.23;95.05
21359;BME280;13506;50.852;20.632;2023-07-31T06:31:43;97882.53;;;19.35;92.44
21359;BME280;13506;50.852;20.632;2023-07-31T06:34:12;97884.31;;;19.42;92.30
21359;BME280;13506;50.852;20.632;2023-07-31T06:36:41;97879.59;;;19.53;91.59
21359;BME280;13506;50.852;20.632;2023-07-31T06:39:08;97888.50;;;19.60;91.12
21359;BME280;13506;50.852;20.632;2023-07-31T06:41:38;97885.47;;;19.63;90.17
21359;BME280;13506;50.852;20.632;2023-07-31T06:44:10;97889.59;;;19.65;89.83
21359;BME280;13506;50.852;20.632;2023-07-31T06:46:39;97889.53;;;19.88;90.20
21359;BME280;13506;50.852;20.632;2023-07-31T06:49:07;97891.38;;;20.03;89.90
21359;BME280;13506;50.852;20.632;2023-07-31T06:51:37;97886.59;;;19.98;88.90
21359;BME280;13506;50.852;20.632;2023-07-31T06:54:05;97894.31;;;20.08;88.70
21359;BME280;13506;50.852;20.632;2023-07-31T06:56:33;97883.69;;;20.23;88.87
21359;BME280;13506;50.852;20.632;2023-07-31T06:59:01;97887.44;;;20.43;87.36
21359;BME280;13506;50.852;20.632;2023-07-31T07:01:29;97898.97;;;20.51;88.14
21359;BME280;13506;50.852;20.632;2023-07-31T07:03:57;97899.13;;;20.64;86.17
21359;BME280;13506;50.852;20.632;2023-07-31T07:06:26;97902.00;;;20.84;86.28
21359;BME280;13506;50.852;20.632;2023-07-31T07:08:55;97898.03;;;21.10;86.16
21359;BME280;13506;50.852;20.632;2023-07-31T07:11:23;97903.91;;;21.26;83.67
21359;BME280;13506;50.852;20.632;2023-07-31T07:13:51;97890.94;;;21.45;83.33
21359;BME280;13506;50.852;20.632;2023-07-31T07:16:19;97900.75;;;21.66;81.44
21359;BME280;13506;50.852;20.632;2023-07-31T07:18:47;97901.03;;;21.71;79.23
21359;BME280;13506;50.852;20.632;2023-07-31T07:21:15;97908.28;;;21.84;78.97
21359;BME280;13506;50.852;20.632;2023-07-31T07:23:44;97905.94;;;22.02;79.00
21359;BME280;13506;50.852;20.632;2023-07-31T07:26:14;97907.94;;;22.28;79.60
21359;BME280;13506;50.852;20.632;2023-07-31T07:28:42;97899.78;;;22.37;78.05
21359;BME280;13506;50.852;20.632;2023-07-31T07:31:10;97905.91;;;22.30;78.42
21359;BME280;13506;50.852;20.632;2023-07-31T07:33:38;97901.41;;;22.38;77.18
21359;BME280;13506;50.852;20.632;2023-07-31T07:36:06;97904.56;;;22.48;77.25
21359;BME280;13506;50.852;20.632;2023-07-31T07:38:36;97910.13;;;22.60;77.17
21359;BME280;13506;50.852;20.632;2023-07-31T07:41:06;97906.44;;;22.54;75.95
21359;BME280;13506;50.852;20.632;2023-07-31T07:43:35;97911.34;;;22.50;75.00
21359;BME280;13506;50.852;20.632;2023-07-31T07:46:04;97911.59;;;22.56;74.24
21359;BME280;13506;50.852;20.632;2023-07-31T07:48:31;97908.94;;;22.62;73.05
21359;BME280;13506;50.852;20.632;2023-07-31T07:51:00;97910.25;;;22.86;71.65
21359;BME280;13506;50.852;20.632;2023-07-31T07:53:28;97921.53;;;22.88;72.68
21359;BME280;13506;50.852;20.632;2023-07-31T07:55:56;97918.34;;;23.20;69.14
21359;BME280;13506;50.852;20.632;2023-07-31T07:58:24;97917.75;;;23.24;67.16
21359;BME280;13506;50.852;20.632;2023-07-31T08:00:54;97919.78;;;23.22;67.21
21359;BME280;13506;50.852;20.632;2023-07-31T08:03:22;97914.34;;;22.96;66.39
21359;BME280;13506;50.852;20.632;2023-07-31T08:05:50;97919.69;;;22.96;66.18
21359;BME280;13506;50.852;20.632;2023-07-31T08:08:18;97918.06;;;23.01;65.36
21359;BME280;13506;50.852;20.632;2023-07-31T08:10:46;97917.72;;;23.11;65.26
21359;BME280;13506;50.852;20.632;2023-07-31T08:13:14;97927.19;;;23.34;64.85
21359;BME280;13506;50.852;20.632;2023-07-31T08:15:43;97914.06;;;23.59;62.42
21359;BME280;13506;50.852;20.632;2023-07-31T08:18:13;97918.19;;;23.68;62.81
21359;BME280;13506;50.852;20.632;2023-07-31T08:20:42;97917.38;;;23.81;62.04
21359;BME280;13506;50.852;20.632;2023-07-31T08:23:10;97913.88;;;23.87;62.17
21359;BME280;13506;50.852;20.632;2023-07-31T08:25:38;97914.06;;;23.99;62.07
21359;BME280;13506;50.852;20.632;2023-07-31T08:28:08;97909.09;;;24.16;60.44
21359;BME280;13506;50.852;20.632;2023-07-31T08:30:36;97914.44;;;24.16;60.78
21359;BME280;13506;50.852;20.632;2023-07-31T08:33:04;97911.91;;;24.47;60.36
21359;BME280;13506;50.852;20.632;2023-07-31T08:35:34;97913.06;;;24.65;59.04
21359;BME280;13506;50.852;20.632;2023-07-31T08:38:02;97917.16;;;24.74;56.99
21359;BME280;13506;50.852;20.632;2023-07-31T08:40:31;97907.63;;;24.85;57.73
21359;BME280;13506;50.852;20.632;2023-07-31T08:42:58;97913.22;;;25.15;57.92
21359;BME280;13506;50.852;20.632;2023-07-31T08:45:29;97913.22;;;25.15;56.42
21359;BME280;13506;50.852;20.632;2023-07-31T08:47:59;97912.28;;;25.03;55.89
21359;BME280;13506;50.852;20.632;2023-07-31T08:50:27;97916.22;;;25.00;55.29
21359;BME280;13506;50.852;20.632;2023-07-31T08:52:57;97918.63;;;25.08;55.59
21359;BME280;13506;50.852;20.632;2023-07-31T08:55:25;97915.91;;;25.15;53.35
21359;BME280;13506;50.852;20.632;2023-07-31T08:57:54;97914.41;;;24.87;53.19
21359;BME280;13506;50.852;20.632;2023-07-31T09:00:23;97912.78;;;24.80;51.42
21359;BME280;13506;50.852;20.632;2023-07-31T09:02:57;97908.28;;;24.80;52.52
21359;BME280;13506;50.852;20.632;2023-07-31T09:05:28;97910.53;;;24.77;53.22
21359;BME280;13506;50.852;20.632;2023-07-31T09:07:58;97901.81;;;24.88;53.37
21359;BME280;13506;50.852;20.632;2023-07-31T09:10:28;97906.72;;;24.98;52.37
21359;BME280;13506;50.852;20.632;2023-07-31T09:12:56;97916.66;;;25.22;52.87
21359;BME280;13506;50.852;20.632;2023-07-31T09:15:25;97916.66;;;25.22;52.87
21359;BME280;13506;50.852;20.632;2023-07-31T09:18:00;97913.41;;;25.52;52.13
21359;BME280;13506;50.852;20.632;2023-07-31T09:20:28;97915.16;;;25.58;51.79
21359;BME280;13506;50.852;20.632;2023-07-31T09:23:06;97909.31;;;25.43;51.38
21359;BME280;13506;50.852;20.632;2023-07-31T09:25:36;97916.41;;;25.62;50.94
21359;BME280;13506;50.852;20.632;2023-07-31T09:28:05;97907.81;;;25.79;49.96
21359;BME280;13506;50.852;20.632;2023-07-31T09:30:45;97901.84;;;25.77;50.18
21359;BME280;13506;50.852;20.632;2023-07-31T09:33:14;97908.88;;;25.78;50.31
21359;BME280;13506;50.852;20.632;2023-07-31T09:35:43;97909.47;;;25.80;49.62
21359;BME280;13506;50.852;20.632;2023-07-31T09:38:13;97915.25;;;25.77;49.78
21359;BME280;13506;50.852;20.632;2023-07-31T09:40:43;97914.88;;;25.73;48.17
21359;BME280;13506;50.852;20.632;2023-07-31T09:43:13;97901.19;;;25.81;48.22
21359;BME280;13506;50.852;20.632;2023-07-31T09:45:42;97913.19;;;25.79;46.87
21359;BME280;13506;50.852;20.632;2023-07-31T09:48:12;97904.94;;;25.80;48.29
21359;BME280;13506;50.852;20.632;2023-07-31T09:50:44;97911.50;;;25.84;47.44
21359;BME280;13506;50.852;20.632;2023-07-31T09:53:14;97906.19;;;25.96;47.33
21359;BME280;13506;50.852;20.632;2023-07-31T09:55:44;97898.34;;;26.01;47.38
21359;BME280;13506;50.852;20.632;2023-07-31T09:58:12;97903.22;;;25.86;48.26
21359;BME280;13506;50.852;20.632;2023-07-31T10:00:41;97902.84;;;25.82;47.66
21359;BME280;13506;50.852;20.632;2023-07-31T10:03:10;97906.47;;;25.88;46.70
21359;BME280;13506;50.852;20.632;2023-07-31T10:05:42;97903.97;;;25.93;47.03
21359;BME280;13506;50.852;20.632;2023-07-31T10:08:13;97891.13;;;25.77;45.69
21359;BME280;13506;50.852;20.632;2023-07-31T10:10:43;97901.53;;;25.66;44.87
21359;BME280;13506;50.852;20.632;2023-07-31T10:13:12;97898.03;;;25.66;44.65
21359;BME280;13506;50.852;20.632;2023-07-31T10:15:41;97893.00;;;25.76;45.61
21359;BME280;13506;50.852;20.632;2023-07-31T10:18:11;97889.25;;;25.84;46.26
21359;BME280;13506;50.852;20.632;2023-07-31T10:20:40;97889.09;;;25.97;46.63
21359;BME280;13506;50.852;20.632;2023-07-31T10:23:09;97883.88;;;26.02;45.11
21359;BME280;13506;50.852;20.632;2023-07-31T10:25:39;97889.31;;;26.14;45.29
21359;BME280;13506;50.852;20.632;2023-07-31T10:28:08;97888.47;;;26.20;44.51
21359;BME280;13506;50.852;20.632;2023-07-31T10:30:38;97898.06;;;26.28;45.03
21359;BME280;13506;50.852;20.632;2023-07-31T10:33:07;97910.16;;;26.37;44.93
21359;BME280;13506;50.852;20.632;2023-07-31T10:35:35;97903.13;;;26.36;43.80
21359;BME280;13506;50.852;20.632;2023-07-31T10:38:13;97887.00;;;25.99;44.80
21359;BME280;13506;50.852;20.632;2023-07-31T10:40:42;97889.38;;;25.89;44.44
21359;BME280;13506;50.852;20.632;2023-07-31T10:43:24;97885.19;;;25.75;44.17
21359;BME280;13506;50.852;20.632;2023-07-31T10:45:54;97887.59;;;25.83;44.55
21359;BME280;13506;50.852;20.632;2023-07-31T10:48:22;97878.69;;;25.64;44.10
21359;BME280;13506;50.852;20.632;2023-07-31T10:50:52;97884.16;;;25.94;43.45
21359;BME280;13506;50.852;20.632;2023-07-31T10:53:24;97878.00;;;26.12;44.86
21359;BME280;13506;50.852;20.632;2023-07-31T10:55:58;97882.25;;;26.20;44.79
21359;BME280;13506;50.852;20.632;2023-07-31T10:58:26;97865.19;;;25.96;43.28
21359;BME280;13506;50.852;20.632;2023-07-31T11:00:56;97875.09;;;25.95;43.45
21359;BME280;13506;50.852;20.632;2023-07-31T11:03:26;97882.31;;;26.13;43.16
21359;BME280;13506;50.852;20.632;2023-07-31T11:06:01;97873.31;;;26.26;42.28
21359;BME280;13506;50.852;20.632;2023-07-31T11:08:31;97873.84;;;26.16;42.70
21359;BME280;13506;50.852;20.632;2023-07-31T11:11:08;97868.72;;;26.33;42.79
21359;BME280;13506;50.852;20.632;2023-07-31T11:13:42;97877.97;;;26.37;41.15
21359;BME280;13506;50.852;20.632;2023-07-31T11:16:11;97865.34;;;26.38;41.36
21359;BME280;13506;50.852;20.632;2023-07-31T11:18:42;97869.34;;;26.47;41.54
21359;BME280;13506;50.852;20.632;2023-07-31T11:21:13;97856.63;;;26.42;41.50
21359;BME280;13506;50.852;20.632;2023-07-31T11:23:41;97867.13;;;26.44;41.07
21359;BME280;13506;50.852;20.632;2023-07-31T11:26:15;97855.13;;;26.46;40.35
21359;BME280;13506;50.852;20.632;2023-07-31T11:28:43;97859.59;;;26.52;40.36
21359;BME280;13506;50.852;20.632;2023-07-31T11:31:11;97863.06;;;26.71;40.41
21359;BME280;13506;50.852;20.632;2023-07-31T11:33:39;97859.69;;;26.76;40.03
21359;BME280;13506;50.852;20.632;2023-07-31T11:36:15;97863.97;;;26.84;39.02
21359;BME280;13506;50.852;20.632;2023-07-31T11:38:44;97850.34;;;26.97;38.30
21359;BME280;13506;50.852;20.632;2023-07-31T11:41:15;97860.06;;;27.10;38.43
21359;BME280;13506;50.852;20.632;2023-07-31T11:43:44;97844.19;;;27.20;39.29
21359;BME280;13506;50.852;20.632;2023-07-31T11:46:13;97840.66;;;27.08;39.60
21359;BME280;13506;50.852;20.632;2023-07-31T11:48:42;97841.13;;;27.05;39.23
21359;BME280;13506;50.852;20.632;2023-07-31T11:51:12;97850.16;;;26.80;38.79
21359;BME280;13506;50.852;20.632;2023-07-31T11:53:42;97848.88;;;26.83;39.29
21359;BME280;13506;50.852;20.632;2023-07-31T11:56:14;97848.75;;;26.78;39.06
21359;BME280;13506;50.852;20.632;2023-07-31T11:58:47;97837.19;;;26.77;39.71
21359;BME280;13506;50.852;20.632;2023-07-31T12:01:17;97831.88;;;26.70;39.76
21359;BME280;13506;50.852;20.632;2023-07-31T12:03:46;97826.41;;;26.65;39.30
21359;BME280;13506;50.852;20.632;2023-07-31T12:06:15;97846.84;;;26.66;38.16
21359;BME280;13506;50.852;20.632;2023-07-31T12:08:43;97830.88;;;26.41;37.88
21359;BME280;13506;50.852;20.632;2023-07-31T12:11:11;97832.78;;;26.34;38.36
21359;BME280;13506;50.852;20.632;2023-07-31T12:13:39;97834.75;;;26.27;39.99
21359;BME280;13506;50.852;20.632;2023-07-31T12:16:09;97829.59;;;26.44;39.34
21359;BME280;13506;50.852;20.632;2023-07-31T12:18:38;97824.59;;;26.47;39.12
21359;BME280;13506;50.852;20.632;2023-07-31T12:21:08;97821.66;;;26.49;37.42
21359;BME280;13506;50.852;20.632;2023-07-31T12:23:38;97830.56;;;26.31;38.39
21359;BME280;13506;50.852;20.632;2023-07-31T12:26:12;97823.69;;;26.17;37.75
21359;BME280;13506;50.852;20.632;2023-07-31T12:28:42;97811.94;;;26.18;38.02
21359;BME280;13506;50.852;20.632;2023-07-31T12:31:14;97812.97;;;26.17;39.59
21359;BME280;13506;50.852;20.632;2023-07-31T12:33:44;97821.19;;;26.22;39.97
21359;BME280;13506;50.852;20.632;2023-07-31T12:36:15;97818.50;;;26.22;39.56
21359;BME280;13506;50.852;20.632;2023-07-31T12:38:44;97812.97;;;26.17;39.33
21359;BME280;13506;50.852;20.632;2023-07-31T12:41:13;97812.25;;;26.09;38.92
21359;BME280;13506;50.852;20.632;2023-07-31T12:43:43;97811.41;;;26.09;39.14
21359;BME280;13506;50.852;20.632;2023-07-31T12:46:13;97810.50;;;26.15;40.05
21359;BME280;13506;50.852;20.632;2023-07-31T12:48:41;97812.25;;;26.28;39.06
21359;BME280;13506;50.852;20.632;2023-07-31T12:51:09;97800.84;;;26.32;39.56
21359;BME280;13506;50.852;20.632;2023-07-31T12:53:37;97800.66;;;26.46;39.17
21359;BME280;13506;50.852;20.632;2023-07-31T12:56:06;97796.63;;;26.55;37.82